Time;durP1;ratioP1;P1;durP2;ratioP2;P2;SDS_P1;SDS_P2;PMS_P1;PMS_P2;Temp;Humidity;BMP_temperature;BMP_pressure;BME280_temperature;BME280_humidity;BME280_pressure;Samples;Min_cycle;Max_cycle;Signal;HPM_P1;HPM_P2
2023/10/22 00:00:07;;;;;;;0.30;0.20;;;;;;;15.31;75.08;99045.69;4995683;28;20453;-49
2023/10/22 00:02:35;;;;;;;0.30;0.20;;;;;;;15.21;75.66;99049.94;4990938;28;20472;-49
2023/10/22 00:05:06;;;;;;;0.30;0.20;;;;;;;15.14;75.82;99052.19;5002538;28;20460;-49
2023/10/22 00:07:33;;;;;;;0.30;0.20;;;;;;;15.13;76.15;99054.97;5008881;28;20551;-49
2023/10/22 00:09:59;;;;;;;0.30;0.20;;;;;;;15.22;75.65;99062.41;4988370;28;20521;-49
2023/10/22 00:12:26;;;;;;;0.40;0.20;;;;;;;15.08;76.09;99060.66;5004142;28;20455;-49
2023/10/22 00:14:53;;;;;;;0.40;0.20;;;;;;;15.18;76.22;99066.22;5003543;28;20511;-49
2023/10/22 00:17:19;;;;;;;0.30;0.20;;;;;;;15.02;76.54;99067.25;5002064;28;20477;-49
2023/10/22 00:19:46;;;;;;;0.40;0.20;;;;;;;15.07;76.41;99066.94;5007392;28;20428;-49
2023/10/22 00:22:14;;;;;;;0.40;0.20;;;;;;;15.18;76.04;99059.03;5008645;28;20434;-49
2023/10/22 00:24:41;;;;;;;0.30;0.20;;;;;;;15.18;75.36;99063.53;4999843;28;20981;-49
2023/10/22 00:27:07;;;;;;;0.30;0.20;;;;;;;15.26;75.27;99063.91;5008621;28;20478;-50
2023/10/22 00:29:34;;;;;;;0.40;0.20;;;;;;;15.14;75.31;99062.91;5003953;28;20578;-49
2023/10/22 00:32:01;;;;;;;0.30;0.20;;;;;;;15.23;75.44;99064.13;5001783;28;20456;-49
2023/10/22 00:34:28;;;;;;;0.30;0.20;;;;;;;15.27;75.80;99060.25;4997604;28;20525;-49
2023/10/22 00:36:55;;;;;;;0.30;0.20;;;;;;;15.27;75.20;99062.94;5003798;28;20526;-49
2023/10/22 00:39:21;;;;;;;0.30;0.20;;;;;;;15.11;76.22;99061.28;5003903;28;20445;-49
2023/10/22 00:41:47;;;;;;;0.30;0.20;;;;;;;15.08;76.06;99066.84;5001438;28;20953;-49
2023/10/22 00:44:14;;;;;;;0.30;0.20;;;;;;;15.24;75.52;99068.50;5006105;28;20460;-49
2023/10/22 00:46:46;;;;;;;0.30;0.20;;;;;;;15.26;75.17;99075.47;5008222;28;20427;-49
2023/10/22 00:49:15;;;;;;;0.30;0.20;;;;;;;15.16;75.77;99071.69;4981383;28;20575;-48
2023/10/22 00:51:42;;;;;;;0.30;0.20;;;;;;;15.12;76.08;99078.22;4992618;28;20511;-49
2023/10/22 00:54:10;;;;;;;0.30;0.20;;;;;;;15.02;76.55;99067.25;5004016;28;20520;-49
2023/10/22 00:56:38;;;;;;;0.30;0.20;;;;;;;15.00;76.78;99079.03;4999981;28;20452;-50
2023/10/22 00:59:04;;;;;;;0.30;0.20;;;;;;;15.16;76.69;99073.50;5002438;28;20461;-49
2023/10/22 01:01:31;;;;;;;0.30;0.20;;;;;;;15.07;75.74;99072.28;4995603;28;20440;-51
2023/10/22 01:03:58;;;;;;;0.30;0.20;;;;;;;15.19;75.77;99073.28;5004875;28;20423;-49
2023/10/22 01:06:25;;;;;;;0.30;0.20;;;;;;;15.19;75.95;99074.16;4999338;28;20499;-49
2023/10/22 01:08:54;;;;;;;0.30;0.20;;;;;;;14.53;78.63;99074.97;5001618;28;21002;-49
2023/10/22 01:11:20;;;;;;;0.30;0.20;;;;;;;14.65;78.74;99082.16;4990391;28;20973;-48
2023/10/22 01:13:47;;;;;;;0.30;0.20;;;;;;;14.87;77.56;99080.78;5007544;28;20460;-49
2023/10/22 01:16:14;;;;;;;0.30;0.20;;;;;;;14.84;78.02;99076.50;4990645;28;20971;-50
2023/10/22 01:18:40;;;;;;;0.30;0.20;;;;;;;14.77;78.21;99073.34;5001575;28;20506;-49
2023/10/22 01:21:07;;;;;;;0.30;0.20;;;;;;;14.82;77.79;99081.09;4988056;28;20452;-48
2023/10/22 01:23:36;;;;;;;0.30;0.20;;;;;;;14.64;79.22;99080.47;5001246;28;20775;-49
2023/10/22 01:26:06;;;;;;;0.30;0.20;;;;;;;14.56;79.85;99087.28;4988207;28;20827;-49
2023/10/22 01:28:36;;;;;;;0.30;0.20;;;;;;;14.47;79.86;99092.25;4999833;28;20464;-49
2023/10/22 01:31:10;;;;;;;0.30;0.20;;;;;;;14.58;79.36;99102.25;5006568;28;20511;-49
2023/10/22 01:33:37;;;;;;;0.30;0.20;;;;;;;14.66;79.10;99101.75;5007359;28;20510;-50
2023/10/22 01:36:04;;;;;;;0.30;0.20;;;;;;;14.58;79.69;99098.72;5002722;28;20452;-49
2023/10/22 01:38:30;;;;;;;0.30;0.20;;;;;;;14.55;79.26;99096.25;5000453;28;20544;-49
2023/10/22 01:40:57;;;;;;;0.30;0.20;;;;;;;14.68;79.42;99107.88;5004989;28;20922;-50
2023/10/22 01:43:23;;;;;;;0.30;0.20;;;;;;;14.67;79.18;99108.84;4990627;28;20429;-49
2023/10/22 01:45:50;;;;;;;0.30;0.20;;;;;;;14.49;79.75;99106.38;5002521;28;20536;-49
2023/10/22 01:48:16;;;;;;;0.30;0.20;;;;;;;14.44;79.96;99099.59;5003218;28;20551;-49
2023/10/22 01:50:43;;;;;;;0.40;0.20;;;;;;;14.37;80.23;99103.56;5003150;28;20950;-50
2023/10/22 01:53:09;;;;;;;0.30;0.20;;;;;;;14.43;79.93;99100.53;5000525;28;20460;-49
2023/10/22 01:55:36;;;;;;;0.30;0.20;;;;;;;14.39;79.94;99099.88;5000288;28;20536;-49
2023/10/22 01:58:02;;;;;;;0.30;0.20;;;;;;;14.24;80.51;99108.84;5007088;28;20475;-48
2023/10/22 02:00:30;;;;;;;0.30;0.20;;;;;;;14.40;80.30;99109.63;4995890;28;20433;-49
2023/10/22 02:02:56;;;;;;;0.30;0.20;;;;;;;14.36;80.42;99107.22;4998136;28;20477;-50
2023/10/22 02:05:23;;;;;;;0.30;0.20;;;;;;;14.36;79.72;99109.88;4999253;28;20556;-49
2023/10/22 02:07:49;;;;;;;0.30;0.20;;;;;;;14.43;79.69;99112.09;4986668;28;21000;-49
2023/10/22 02:10:16;;;;;;;0.30;0.20;;;;;;;14.36;80.03;99116.09;5002039;28;21077;-49
2023/10/22 02:12:42;;;;;;;0.30;0.20;;;;;;;14.41;80.00;99113.16;4989422;28;20479;-49
2023/10/22 02:15:09;;;;;;;0.30;0.20;;;;;;;14.33;80.00;99128.78;5004370;28;20471;-49
2023/10/22 02:17:37;;;;;;;0.30;0.20;;;;;;;14.22;80.43;99118.75;4999523;28;20450;-49
2023/10/22 02:20:08;;;;;;;0.30;0.20;;;;;;;14.26;80.69;99125.66;4997161;28;20546;-49
2023/10/22 02:22:37;;;;;;;0.30;0.20;;;;;;;14.33;80.94;99126.13;5008695;28;20510;-49
2023/10/22 02:25:05;;;;;;;0.30;0.20;;;;;;;14.29;80.65;99116.59;5008117;28;20543;-49
2023/10/22 02:27:32;;;;;;;0.30;0.20;;;;;;;14.19;81.26;99122.50;4999595;28;20557;-51
2023/10/22 02:29:58;;;;;;;0.40;0.20;;;;;;;14.22;81.07;99133.00;5000424;28;20519;-49
2023/10/22 02:32:25;;;;;;;0.30;0.20;;;;;;;14.27;81.14;99135.41;5006706;28;20461;-49
2023/10/22 02:34:52;;;;;;;0.30;0.20;;;;;;;14.27;80.81;99134.53;4989338;28;20882;-49
2023/10/22 02:37:19;;;;;;;0.30;0.20;;;;;;;14.28;81.47;99137.13;5006162;28;20895;-50
2023/10/22 02:39:46;;;;;;;0.30;0.20;;;;;;;14.41;81.33;99138.06;5005196;28;20463;-49
2023/10/22 02:42:13;;;;;;;0.30;0.20;;;;;;;14.35;81.13;99150.94;4999357;28;20452;-50
2023/10/22 02:44:40;;;;;;;0.30;0.20;;;;;;;14.26;81.61;99147.03;4999947;28;20432;-49
2023/10/22 02:47:06;;;;;;;0.30;0.20;;;;;;;14.40;81.05;99143.50;5006191;28;20498;-49
2023/10/22 02:49:33;;;;;;;0.30;0.20;;;;;;;14.37;81.67;99139.19;5002243;28;20493;-50
2023/10/22 02:52:00;;;;;;;0.30;0.20;;;;;;;14.49;81.37;99141.13;5006311;28;20454;-49
2023/10/22 02:54:26;;;;;;;0.30;0.20;;;;;;;14.62;80.69;99140.34;5001855;28;20424;-49
2023/10/22 02:56:53;;;;;;;0.30;0.20;;;;;;;14.66;80.71;99144.53;5000277;28;20478;-50
2023/10/22 02:59:19;;;;;;;0.30;0.20;;;;;;;14.76;80.56;99157.25;4999487;28;20424;-49
2023/10/22 03:01:45;;;;;;;0.30;0.20;;;;;;;14.90;80.25;99153.69;4998044;28;20528;-50
2023/10/22 03:04:12;;;;;;;0.30;0.20;;;;;;;14.88;79.92;99160.94;4987609;28;20489;-49
2023/10/22 03:06:39;;;;;;;0.30;0.20;;;;;;;14.82;80.54;99156.88;5004384;28;20460;-49
2023/10/22 03:09:05;;;;;;;0.30;0.20;;;;;;;14.96;79.44;99155.97;5006030;28;20495;-49
2023/10/22 03:11:32;;;;;;;0.30;0.20;;;;;;;15.03;79.70;99156.41;5002918;28;20522;-49
2023/10/22 03:13:58;;;;;;;0.30;0.20;;;;;;;14.85;79.88;99160.31;5003287;28;20511;-48
2023/10/22 03:16:24;;;;;;;0.30;0.20;;;;;;;15.03;79.61;99161.78;5009136;28;20428;-49
2023/10/22 03:18:51;;;;;;;0.30;0.20;;;;;;;14.76;80.01;99162.59;5008835;28;20444;-50
2023/10/22 03:21:19;;;;;;;0.30;0.20;;;;;;;14.66;80.25;99155.25;5004416;28;20539;-49
2023/10/22 03:23:47;;;;;;;0.30;0.20;;;;;;;14.68;80.43;99162.25;5003136;28;20453;-49
2023/10/22 03:26:16;;;;;;;0.30;0.20;;;;;;;14.74;80.29;99161.84;5007977;28;20527;-49
2023/10/22 03:28:43;;;;;;;0.30;0.20;;;;;;;14.80;80.03;99153.44;5009490;28;20447;-49
2023/10/22 03:31:09;;;;;;;0.30;0.20;;;;;;;14.85;80.20;99160.31;5005418;28;20821;-49
2023/10/22 03:33:36;;;;;;;0.30;0.20;;;;;;;14.80;80.36;99161.47;4990135;28;20458;-49
2023/10/22 03:36:04;;;;;;;0.30;0.20;;;;;;;14.86;79.98;99164.69;4989239;28;20544;-49
2023/10/22 03:38:31;;;;;;;0.30;0.20;;;;;;;15.00;79.91;99165.53;5009369;28;20507;-49
2023/10/22 03:41:02;;;;;;;0.30;0.20;;;;;;;15.00;79.79;99168.19;5005562;28;20419;-49
2023/10/22 03:43:29;;;;;;;0.30;0.20;;;;;;;15.00;79.65;99168.19;4985302;28;20430;-49
2023/10/22 03:45:56;;;;;;;0.30;0.20;;;;;;;14.98;79.79;99164.75;5005353;28;20454;-49
2023/10/22 03:48:23;;;;;;;0.30;0.20;;;;;;;14.90;79.92;99166.19;4991588;28;20479;-49
2023/10/22 03:50:50;;;;;;;0.30;0.20;;;;;;;14.95;80.08;99170.31;5006228;28;20520;-49
2023/10/22 03:53:17;;;;;;;0.30;0.20;;;;;;;15.05;79.57;99178.59;5002649;28;20541;-49
2023/10/22 03:55:44;;;;;;;0.30;0.20;;;;;;;14.87;80.79;99180.66;4983934;28;20460;-48
2023/10/22 03:58:12;;;;;;;0.30;0.20;;;;;;;14.57;81.29;99186.13;4992189;28;20493;-50
2023/10/22 04:00:39;;;;;;;0.30;0.20;;;;;;;14.94;80.50;99195.38;4980400;28;20454;-49
2023/10/22 04:03:05;;;;;;;0.30;0.20;;;;;;;14.84;80.62;99194.22;4999733;28;20490;-49
2023/10/22 04:05:32;;;;;;;0.30;0.20;;;;;;;14.45;81.42;99202.94;4995185;28;20584;-52
2023/10/22 04:07:59;;;;;;;0.30;0.20;;;;;;;14.52;82.18;99205.09;4992934;28;21053;-50
2023/10/22 04:10:25;;;;;;;0.30;0.20;;;;;;;14.75;81.72;99218.88;4990561;28;20500;-49
2023/10/22 04:12:52;;;;;;;0.30;0.20;;;;;;;14.57;82.14;99212.88;5008381;28;20460;-49
2023/10/22 04:15:18;;;;;;;0.30;0.20;;;;;;;14.85;81.13;99214.66;4998612;28;20428;-49
2023/10/22 04:17:49;;;;;;;0.30;0.20;;;;;;;14.77;81.09;99219.63;5007530;28;20476;-49
2023/10/22 04:20:16;;;;;;;0.30;0.20;;;;;;;14.85;81.30;99214.66;5007874;28;20524;-50
2023/10/22 04:22:43;;;;;;;0.30;0.20;;;;;;;14.43;82.66;99215.50;5001466;28;20430;-49
2023/10/22 04:25:11;;;;;;;0.30;0.20;;;;;;;14.72;82.16;99222.59;5002024;28;20536;-49
2023/10/22 04:27:37;;;;;;;0.40;0.20;;;;;;;15.01;81.05;99218.09;5008536;28;20465;-49
2023/10/22 04:30:05;;;;;;;0.30;0.20;;;;;;;14.74;81.13;99218.00;5008335;28;20459;-50
2023/10/22 04:32:33;;;;;;;0.40;0.20;;;;;;;14.82;81.31;99225.56;4989135;28;20932;-49
2023/10/22 04:35:00;;;;;;;0.30;0.20;;;;;;;14.75;81.93;99227.75;5001999;28;20463;-49
2023/10/22 04:37:27;;;;;;;0.30;0.20;;;;;;;14.81;81.79;99227.38;5008211;28;20444;-50
2023/10/22 04:39:57;;;;;;;0.30;0.20;;;;;;;14.88;81.82;99235.88;4995406;28;20512;-49
2023/10/22 04:42:27;;;;;;;0.30;0.20;;;;;;;14.74;82.28;99230.53;5007510;28;20791;-50
2023/10/22 04:44:54;;;;;;;0.30;0.20;;;;;;;14.65;82.60;99228.41;5007341;28;20459;-49
2023/10/22 04:47:21;;;;;;;0.30;0.20;;;;;;;14.45;82.91;99230.53;4991050;28;21031;-49
2023/10/22 04:49:51;;;;;;;0.30;0.20;;;;;;;14.76;82.97;99234.81;5001176;28;21018;-50
2023/10/22 04:52:31;;;;;;;0.30;0.20;;;;;;;14.70;82.83;99237.03;5006165;28;20449;-49
2023/10/22 04:54:59;;;;;;;0.30;0.20;;;;;;;14.71;82.63;99244.97;4994775;28;20432;-49
2023/10/22 04:57:26;;;;;;;0.30;0.20;;;;;;;14.69;82.18;99243.34;5006468;28;21003;-49
2023/10/22 04:59:53;;;;;;;0.30;0.20;;;;;;;14.59;82.50;99244.88;5001115;28;20495;-49
2023/10/22 05:02:20;;;;;;;0.30;0.20;;;;;;;14.67;82.68;99246.13;4991194;28;20490;-49
2023/10/22 05:04:50;;;;;;;0.30;0.20;;;;;;;14.44;83.15;99246.66;5002640;28;20520;-49
2023/10/22 05:07:17;;;;;;;0.30;0.20;;;;;;;14.35;83.54;99252.53;5006581;28;20503;-51
2023/10/22 05:09:44;;;;;;;0.30;0.20;;;;;;;14.31;84.53;99254.53;5001030;28;20485;-49
2023/10/22 05:12:10;;;;;;;0.30;0.20;;;;;;;14.35;84.25;99258.72;5001328;28;20453;-50
2023/10/22 05:14:37;;;;;;;0.30;0.20;;;;;;;14.37;85.06;99267.53;5007559;28;20857;-49
2023/10/22 05:17:05;;;;;;;0.30;0.20;;;;;;;14.30;85.07;99260.84;5007673;28;20533;-50
2023/10/22 05:19:31;;;;;;;0.30;0.20;;;;;;;14.39;84.35;99260.28;5000998;28;20841;-50
2023/10/22 05:21:58;;;;;;;0.30;0.20;;;;;;;14.42;84.48;99264.59;5001135;28;20484;-50
2023/10/22 05:24:25;;;;;;;0.30;0.20;;;;;;;14.37;84.77;99272.88;5001156;28;20492;-50
2023/10/22 05:26:52;;;;;;;0.30;0.20;;;;;;;14.34;84.86;99267.72;5000372;28;20520;-49
2023/10/22 05:29:19;;;;;;;0.30;0.20;;;;;;;14.36;85.52;99276.50;5004220;28;20551;-49
2023/10/22 05:31:45;;;;;;;0.30;0.20;;;;;;;14.43;84.74;99280.53;5000872;28;20428;-49
2023/10/22 05:34:12;;;;;;;0.30;0.20;;;;;;;14.37;85.33;99286.22;5006042;28;20445;-49
2023/10/22 05:36:38;;;;;;;0.30;0.20;;;;;;;14.35;85.58;99289.97;5007087;28;20448;-50
2023/10/22 05:39:04;;;;;;;0.30;0.20;;;;;;;14.29;85.91;99296.53;4999951;28;20899;-49
2023/10/22 05:41:31;;;;;;;0.30;0.20;;;;;;;14.36;86.61;99292.53;5000098;28;20453;-50
2023/10/22 05:44:00;;;;;;;0.30;0.20;;;;;;;14.47;84.97;99300.81;4999251;28;20466;-50
2023/10/22 05:46:32;;;;;;;0.30;0.20;;;;;;;14.41;85.47;99298.50;4987352;28;20533;-49
2023/10/22 05:49:00;;;;;;;0.30;0.20;;;;;;;14.46;85.39;99300.91;4983378;28;20476;-49
2023/10/22 05:51:26;;;;;;;0.30;0.20;;;;;;;14.41;85.68;99300.31;5006783;28;20502;-49
2023/10/22 05:53:53;;;;;;;0.30;0.20;;;;;;;14.56;85.09;99306.56;5002862;28;20895;-50
2023/10/22 05:56:24;;;;;;;0.30;0.20;;;;;;;14.58;85.35;99300.16;4993800;28;20965;-49
2023/10/22 05:58:51;;;;;;;0.40;0.20;;;;;;;14.55;85.24;99303.03;5002900;28;20556;-49
2023/10/22 06:01:17;;;;;;;0.30;0.20;;;;;;;14.48;85.64;99304.34;5003780;28;20490;-49
2023/10/22 06:03:44;;;;;;;0.30;0.20;;;;;;;14.64;85.72;99313.16;4984340;28;20458;-49
2023/10/22 06:06:20;;;;;;;0.30;0.20;;;;;;;14.52;85.81;99311.22;5006604;28;20776;-49
2023/10/22 06:08:46;;;;;;;0.30;0.20;;;;;;;14.64;85.35;99313.16;5004019;28;20476;-49
2023/10/22 06:11:14;;;;;;;0.30;0.20;;;;;;;14.59;85.53;99322.41;5005856;28;20584;-49
2023/10/22 06:13:41;;;;;;;0.30;0.20;;;;;;;14.57;85.42;99319.00;5005746;28;20483;-49
2023/10/22 06:16:07;;;;;;;0.40;0.20;;;;;;;14.66;85.43;99329.09;4999995;28;20544;-50
2023/10/22 06:18:34;;;;;;;0.30;0.20;;;;;;;14.72;85.21;99334.09;5000681;28;20505;-49
2023/10/22 06:21:12;;;;;;;0.30;0.20;;;;;;;14.66;85.68;99332.63;5005329;28;20450;-50
2023/10/22 06:23:38;;;;;;;0.30;0.20;;;;;;;14.62;86.10;99335.59;5006629;28;20835;-50
2023/10/22 06:26:08;;;;;;;0.30;0.20;;;;;;;14.67;85.64;99339.75;5000660;28;20864;-50
2023/10/22 06:28:35;;;;;;;0.30;0.20;;;;;;;14.74;85.73;99340.22;4998909;28;20560;-50
2023/10/22 06:31:12;;;;;;;0.30;0.20;;;;;;;14.70;85.88;99341.38;5004441;28;20524;-50
2023/10/22 06:33:40;;;;;;;0.30;0.20;;;;;;;14.65;85.79;99346.13;5001269;28;20449;-50
2023/10/22 06:36:16;;;;;;;0.30;0.20;;;;;;;14.52;86.27;99338.81;4992464;28;20504;-51
2023/10/22 06:38:44;;;;;;;0.30;0.20;;;;;;;14.42;86.40;99350.16;5006383;28;21077;-50
2023/10/22 06:41:12;;;;;;;0.30;0.20;;;;;;;14.67;85.75;99354.94;4996730;28;20481;-50
2023/10/22 06:43:39;;;;;;;0.30;0.20;;;;;;;14.74;85.44;99361.63;5002269;28;20469;-50
2023/10/22 06:46:05;;;;;;;0.30;0.20;;;;;;;14.86;85.89;99366.22;4999887;28;20459;-50
2023/10/22 06:48:32;;;;;;;0.30;0.20;;;;;;;15.02;85.14;99368.81;4997659;28;20516;-50
2023/10/22 06:50:59;;;;;;;0.30;0.20;;;;;;;14.85;85.36;99367.19;5000576;28;20518;-50
2023/10/22 06:53:25;;;;;;;0.30;0.20;;;;;;;14.89;85.41;99376.72;5006095;28;20486;-50
2023/10/22 06:55:53;;;;;;;0.30;0.20;;;;;;;14.95;85.38;99378.19;4981509;28;21013;-50
2023/10/22 06:58:19;;;;;;;0.30;0.20;;;;;;;15.07;85.00;99374.72;4997885;28;20491;-51
2023/10/22 07:00:45;;;;;;;0.30;0.20;;;;;;;14.89;85.28;99376.72;4999699;28;20458;-50
2023/10/22 07:03:12;;;;;;;0.30;0.20;;;;;;;14.96;85.07;99374.56;4983413;28;20556;-50
2023/10/22 07:05:38;;;;;;;0.30;0.20;;;;;;;14.92;85.55;99379.22;4993528;28;20553;-49
2023/10/22 07:08:05;;;;;;;0.30;0.20;;;;;;;14.99;85.75;99375.22;5010200;28;20464;-50
2023/10/22 07:10:32;;;;;;;0.30;0.20;;;;;;;14.95;85.29;99384.41;4999398;28;20593;-52
2023/10/22 07:12:58;;;;;;;0.30;0.20;;;;;;;15.16;84.92;99392.06;5003334;28;20448;-50
2023/10/22 07:15:25;;;;;;;0.30;0.20;;;;;;;15.14;85.13;99386.81;4999351;28;20449;-50
2023/10/22 07:17:51;;;;;;;0.30;0.20;;;;;;;15.13;85.50;99393.13;5005882;28;20473;-50
2023/10/22 07:20:18;;;;;;;0.30;0.20;;;;;;;15.21;84.40;99396.16;5005623;28;21031;-51
2023/10/22 07:22:44;;;;;;;0.30;0.20;;;;;;;15.06;84.95;99397.97;4999657;28;20527;-50
2023/10/22 07:25:11;;;;;;;0.30;0.20;;;;;;;15.25;84.87;99400.38;5009984;28;20453;-51
2023/10/22 07:27:37;;;;;;;0.30;0.20;;;;;;;15.27;84.47;99401.16;4999463;28;20542;-50
2023/10/22 07:30:04;;;;;;;0.30;0.20;;;;;;;15.11;84.69;99405.72;4998723;28;21002;-51
2023/10/22 07:32:31;;;;;;;0.30;0.20;;;;;;;15.28;84.33;99418.94;5004875;28;20461;-51
2023/10/22 07:34:58;;;;;;;0.30;0.20;;;;;;;15.16;84.50;99421.50;4989540;28;20962;-50
2023/10/22 07:37:24;;;;;;;0.30;0.20;;;;;;;15.26;84.37;99417.31;5000305;28;20473;-50
2023/10/22 07:39:51;;;;;;;0.30;0.20;;;;;;;15.11;84.42;99422.66;4998901;28;20455;-50
2023/10/22 07:42:17;;;;;;;2.20;2.10;;;;;;;15.23;84.70;99429.09;4996276;28;20490;-51
2023/10/22 07:44:43;;;;;;;0.30;0.20;;;;;;;15.31;84.37;99436.63;5000521;28;20452;-50
2023/10/22 07:47:10;;;;;;;0.30;0.20;;;;;;;15.29;84.78;99439.41;5000499;28;20484;-49
2023/10/22 07:49:36;;;;;;;0.30;0.20;;;;;;;15.36;84.12;99443.44;4998808;28;20540;-49
2023/10/22 07:52:03;;;;;;;0.30;0.20;;;;;;;15.64;83.76;99447.97;5004051;28;20646;-50
2023/10/22 07:54:30;;;;;;;0.30;0.20;;;;;;;15.47;84.07;99447.25;5002242;28;20484;-50
2023/10/22 07:56:57;;;;;;;0.30;0.20;;;;;;;15.52;84.04;99450.50;4999945;28;20464;-50
2023/10/22 07:59:24;;;;;;;0.40;0.20;;;;;;;15.57;84.03;99451.94;4984739;28;20473;-50
2023/10/22 08:01:50;;;;;;;0.30;0.20;;;;;;;15.60;83.38;99453.59;4998787;28;20424;-50
2023/10/22 08:04:17;;;;;;;0.30;0.20;;;;;;;15.51;83.39;99454.16;4999278;28;20454;-51
2023/10/22 08:06:43;;;;;;;0.30;0.20;;;;;;;15.31;84.05;99452.69;5002432;28;20432;-50
2023/10/22 08:09:10;;;;;;;0.30;0.20;;;;;;;15.29;83.68;99457.28;5002056;28;20880;-50
2023/10/22 08:11:36;;;;;;;0.30;0.20;;;;;;;15.27;84.08;99467.22;5001248;28;21131;-50
2023/10/22 08:14:03;;;;;;;0.30;0.20;;;;;;;15.34;84.04;99466.75;5008908;28;20452;-51
2023/10/22 08:16:31;;;;;;;0.30;0.20;;;;;;;15.57;83.30;99470.69;4998738;28;20456;-50
2023/10/22 08:18:57;;;;;;;0.30;0.20;;;;;;;15.56;83.99;99474.31;4998137;28;20544;-50
2023/10/22 08:21:24;;;;;;;0.30;0.20;;;;;;;15.62;83.31;99476.69;4998460;28;20561;-49
2023/10/22 08:23:51;;;;;;;0.30;0.20;;;;;;;15.75;82.78;99478.56;4997450;28;20436;-50
2023/10/22 08:26:17;;;;;;;0.30;0.20;;;;;;;15.65;82.92;99471.13;4991695;28;20452;-55
2023/10/22 08:28:44;;;;;;;0.30;0.20;;;;;;;15.89;82.25;99478.53;5002146;28;20475;-49
2023/10/22 08:31:10;;;;;;;0.30;0.20;;;;;;;15.94;82.66;99489.84;5002769;28;20464;-49
2023/10/22 08:33:36;;;;;;;0.30;0.20;;;;;;;15.83;82.39;99485.16;4997452;28;21018;-49
2023/10/22 08:36:05;;;;;;;0.30;0.20;;;;;;;15.98;81.64;99488.69;4998556;28;20945;-49
2023/10/22 08:38:31;;;;;;;0.30;0.20;;;;;;;15.87;81.94;99488.50;4995810;28;20541;-50
2023/10/22 08:41:00;;;;;;;0.30;0.20;;;;;;;15.83;82.45;99497.72;5005834;28;20450;-49
2023/10/22 08:43:32;;;;;;;0.30;0.20;;;;;;;15.84;82.33;99491.38;4988083;28;20941;-48
2023/10/22 08:45:58;;;;;;;0.30;0.20;;;;;;;15.86;82.48;99497.50;4985228;28;20952;-49
2023/10/22 08:48:26;;;;;;;0.30;0.20;;;;;;;16.00;82.03;99495.69;5007778;28;20444;-49
2023/10/22 08:50:56;;;;;;;0.30;0.20;;;;;;;16.06;82.25;99498.94;5004826;28;20497;-48
2023/10/22 08:53:22;;;;;;;0.30;0.20;;;;;;;16.21;81.63;99495.28;5001193;28;20924;-49
2023/10/22 08:55:49;;;;;;;0.30;0.20;;;;;;;16.14;82.21;99501.97;4999090;28;20436;-49
2023/10/22 08:58:18;;;;;;;0.30;0.20;;;;;;;16.06;81.68;99498.94;5007569;28;20481;-49
2023/10/22 09:00:46;;;;;;;0.30;0.20;;;;;;;16.09;81.22;99502.28;5007395;28;20859;-49
2023/10/22 09:03:14;;;;;;;0.40;0.20;;;;;;;16.45;81.35;99500.88;5002038;28;20446;-49
2023/10/22 09:05:41;;;;;;;0.30;0.20;;;;;;;16.32;81.21;99498.13;4997774;28;20457;-50
2023/10/22 09:08:09;;;;;;;0.40;0.20;;;;;;;16.33;80.88;99499.00;5007360;28;20473;-50
2023/10/22 09:10:37;;;;;;;0.30;0.20;;;;;;;16.34;81.10;99520.34;5007945;28;20499;-49
2023/10/22 09:13:07;;;;;;;0.30;0.20;;;;;;;16.46;80.53;99513.31;5002131;28;20518;-49
2023/10/22 09:15:41;;;;;;;0.30;0.20;;;;;;;16.55;79.91;99520.75;5000875;28;20442;-49
2023/10/22 09:18:08;;;;;;;0.40;0.20;;;;;;;16.48;80.83;99517.63;5005121;28;20941;-50
2023/10/22 09:20:35;;;;;;;0.30;0.20;;;;;;;16.38;81.41;99521.00;5007762;28;20503;-49
2023/10/22 09:23:19;;;;;;;0.30;0.20;;;;;;;16.51;80.69;99514.75;5003415;28;20798;-50
2023/10/22 09:25:47;;;;;;;0.30;0.20;;;;;;;16.59;80.09;99519.63;5000582;28;20547;-50
2023/10/22 09:28:21;;;;;;;0.40;0.20;;;;;;;16.59;79.97;99517.78;5002113;28;20473;-49
2023/10/22 09:30:53;;;;;;;0.40;0.20;;;;;;;16.74;79.16;99524.00;5007237;28;20463;-50
2023/10/22 09:33:30;;;;;;;0.30;0.20;;;;;;;16.86;79.48;99533.94;5007366;28;20452;-49
2023/10/22 09:36:11;;;;;;;0.30;0.20;;;;;;;16.98;79.00;99529.53;5002764;28;20498;-50
2023/10/22 09:38:48;;;;;;;0.30;0.20;;;;;;;16.84;79.40;99527.78;5000481;28;20547;-50
2023/10/22 09:41:27;;;;;;;0.30;0.20;;;;;;;16.87;79.11;99535.66;5001852;28;20449;-49
2023/10/22 09:43:58;;;;;;;0.30;0.20;;;;;;;16.91;79.10;99543.50;4990007;28;20480;-49
2023/10/22 09:46:34;;;;;;;0.30;0.20;;;;;;;16.77;79.38;99545.25;5000349;28;20430;-49
2023/10/22 09:49:07;;;;;;;0.30;0.20;;;;;;;16.96;78.22;99544.88;5004178;28;20450;-49
2023/10/22 09:51:35;;;;;;;0.30;0.20;;;;;;;16.94;78.64;99548.66;5006980;28;20485;-50
2023/10/22 09:54:05;;;;;;;0.30;0.20;;;;;;;16.94;78.21;99541.44;5003763;28;20452;-49
2023/10/22 09:56:37;;;;;;;0.30;0.20;;;;;;;16.76;78.87;99548.91;4998417;28;20426;-50
2023/10/22 09:59:07;;;;;;;0.30;0.20;;;;;;;17.12;77.75;99540.19;5001686;28;21057;-52
2023/10/22 10:01:36;;;;;;;0.30;0.20;;;;;;;16.84;78.71;99546.56;5001724;28;20528;-52
2023/10/22 10:04:03;;;;;;;0.30;0.20;;;;;;;17.05;78.45;99536.22;4987022;28;20457;-52
2023/10/22 10:06:30;;;;;;;0.30;0.20;;;;;;;17.28;77.62;99544.56;4987266;28;20510;-52
2023/10/22 10:08:59;;;;;;;0.30;0.20;;;;;;;17.28;76.82;99545.44;5000314;28;21005;-52
2023/10/22 10:11:27;;;;;;;0.30;0.20;;;;;;;17.45;76.80;99547.81;5005933;28;21002;-52
2023/10/22 10:13:53;;;;;;;0.30;0.20;;;;;;;17.57;77.15;99539.88;5006782;28;20522;-52
2023/10/22 10:16:23;;;;;;;0.30;0.20;;;;;;;17.08;77.46;99552.13;5000720;28;20547;-52
2023/10/22 10:19:02;;;;;;;0.30;0.20;;;;;;;17.33;77.08;99551.34;5000098;28;20476;-52
2023/10/22 10:21:44;;;;;;;0.40;0.20;;;;;;;17.36;77.59;99553.81;5003059;28;20508;-52
2023/10/22 10:24:23;;;;;;;0.30;0.20;;;;;;;17.69;75.83;99553.34;5006457;28;21010;-52
2023/10/22 10:26:56;;;;;;;0.30;0.20;;;;;;;17.66;76.52;99566.09;5006336;28;20849;-52
2023/10/22 10:29:25;;;;;;;0.30;0.20;;;;;;;17.57;76.32;99561.38;4989227;28;20487;-52
2023/10/22 10:31:54;;;;;;;0.40;0.20;;;;;;;17.62;76.09;99553.84;4999621;28;20476;-52
2023/10/22 10:34:36;;;;;;;0.40;0.20;;;;;;;17.67;76.22;99565.13;5004667;28;20536;-52
2023/10/22 10:37:17;;;;;;;0.30;0.20;;;;;;;17.85;75.39;99565.72;5006077;28;20444;-53
2023/10/22 10:39:47;;;;;;;0.30;0.20;;;;;;;17.82;75.66;99560.53;5005595;28;20452;-52
2023/10/22 10:42:34;;;;;;;0.30;0.20;;;;;;;17.90;75.83;99559.03;4999822;28;20481;-52
2023/10/22 10:45:00;;;;;;;0.40;0.20;;;;;;;17.57;75.94;99566.75;4999135;28;20503;-52
2023/10/22 10:47:45;;;;;;;0.40;0.20;;;;;;;17.96;76.01;99569.38;5003772;28;20480;-53
2023/10/22 10:50:18;;;;;;;0.40;0.20;;;;;;;18.09;74.55;99572.03;5006738;28;20425;-52
2023/10/22 10:53:05;;;;;;;0.40;0.20;;;;;;;18.09;74.51;99566.66;5005431;28;20492;-52
2023/10/22 10:55:32;;;;;;;0.33;0.20;;;;;;;17.96;74.79;99564.00;4999592;28;20473;-52
2023/10/22 10:58:00;;;;;;;0.40;0.20;;;;;;;17.66;74.51;99571.47;5005825;28;20477;-52
2023/10/22 11:00:30;;;;;;;0.40;0.20;;;;;;;18.13;74.17;99581.63;5003066;28;20445;-52
2023/10/22 11:03:00;;;;;;;0.40;0.20;;;;;;;18.06;73.88;99567.72;4982574;28;20490;-52
2023/10/22 11:05:32;;;;;;;0.40;0.20;;;;;;;18.10;73.03;99581.84;5004011;28;20430;-52
2023/10/22 11:07:58;;;;;;;0.40;0.20;;;;;;;17.82;74.21;99582.94;4999386;28;20458;-52
2023/10/22 11:10:27;;;;;;;0.40;0.20;;;;;;;18.07;73.08;99573.97;5000312;28;20445;-52
2023/10/22 11:13:02;;;;;;;0.40;0.20;;;;;;;17.86;73.45;99587.13;5005783;28;20504;-52
2023/10/22 11:15:37;;;;;;;0.40;0.20;;;;;;;17.86;73.88;99587.13;5006365;28;20509;-53
2023/10/22 11:18:06;;;;;;;0.40;0.20;;;;;;;18.25;72.17;99582.59;5001079;28;20559;-53
2023/10/22 11:20:33;;;;;;;0.30;0.20;;;;;;;17.97;72.81;99583.69;4999232;28;20453;-54
2023/10/22 11:23:00;;;;;;;0.40;0.20;;;;;;;18.35;71.84;99594.38;5003777;28;20449;-53
2023/10/22 11:25:27;;;;;;;0.40;0.20;;;;;;;18.12;72.34;99582.59;5005542;28;20491;-54
2023/10/22 11:27:54;;;;;;;0.40;0.20;;;;;;;18.01;71.97;99591.41;5001819;28;20515;-53
2023/10/22 11:30:37;;;;;;;0.40;0.20;;;;;;;18.13;72.59;99588.84;4999118;28;20450;-53
2023/10/22 11:33:09;;;;;;;0.37;0.20;;;;;;;18.13;71.67;99594.22;5004298;28;20484;-53
2023/10/22 11:35:37;;;;;;;0.30;0.20;;;;;;;17.93;71.63;99592.91;4992381;28;20531;-53
2023/10/22 11:38:06;;;;;;;0.40;0.20;;;;;;;18.03;71.75;99591.31;5008878;28;21047;-53